createdAt,value
2019-01-10T00:00:44.824Z,5.60
2019-01-10T00:01:44.789Z,6.20
2019-01-10T00:02:44.776Z,6.80
2019-01-10T00:03:44.767Z,6.70
2019-01-10T00:04:44.761Z,5.00
2019-01-10T00:05:44.762Z,7.80
2019-01-10T00:06:44.734Z,7.60
2019-01-10T00:07:44.826Z,5.20
2019-01-10T00:08:44.715Z,4.80
2019-01-10T00:09:44.702Z,5.30
2019-01-10T00:10:44.705Z,5.00
2019-01-10T00:11:44.680Z,6.40
2019-01-10T00:12:44.670Z,5.20
2019-01-10T00:13:44.657Z,5.50
2019-01-10T00:14:44.645Z,6.10
2019-01-10T00:15:44.653Z,5.00
2019-01-10T00:16:44.625Z,6.30
2019-01-10T00:17:44.612Z,5.10
2019-01-10T00:18:44.599Z,6.10
2019-01-10T00:19:44.591Z,5.50
2019-01-10T00:20:44.600Z,4.70
2019-01-10T00:21:44.567Z,4.50
2019-01-10T00:22:44.556Z,4.50
2019-01-10T00:23:44.592Z,4.00
2019-01-10T00:24:44.535Z,5.70
2019-01-10T00:25:44.543Z,5.20
2019-01-10T00:26:44.516Z,4.50
2019-01-10T00:27:44.499Z,4.00
2019-01-10T00:28:44.488Z,4.40
2019-01-10T00:29:44.477Z,5.10
2019-01-10T00:30:44.483Z,5.20
2019-01-10T00:31:44.456Z,4.20
2019-01-10T00:32:44.447Z,4.60
2019-01-10T00:33:44.433Z,4.40
2019-01-10T00:34:44.419Z,3.30
2019-01-10T00:35:44.426Z,3.60
2019-01-10T00:36:44.398Z,3.90
2019-01-10T00:37:44.388Z,3.90
2019-01-10T00:38:44.377Z,4.10
2019-01-10T00:39:44.369Z,4.50
2019-01-10T00:40:44.372Z,4.10
2019-01-10T00:41:44.342Z,4.80
2019-01-10T00:42:49.674Z,4.40
2019-01-10T00:43:45.321Z,3.70
2019-01-10T00:44:44.310Z,4.40
2019-01-10T00:45:44.324Z,3.70
2019-01-10T00:46:44.289Z,4.70
2019-01-10T00:47:44.277Z,3.50
2019-01-10T00:48:44.273Z,3.90
2019-01-10T00:49:44.256Z,5.10
2019-01-10T00:50:44.277Z,3.70
2019-01-10T00:51:44.230Z,5.20
2019-01-10T00:52:44.221Z,4.10
2019-01-10T00:53:44.210Z,4.80
2019-01-10T00:54:44.197Z,4.20
2019-01-10T00:55:44.203Z,4.60
2019-01-10T00:56:44.175Z,5.50
2019-01-10T00:57:44.165Z,3.80
2019-01-10T00:58:44.152Z,4.00
2019-01-10T00:59:44.140Z,3.50
2019-01-10T01:00:44.151Z,3.90
2019-01-10T01:01:44.119Z,5.10
2019-01-10T01:02:44.108Z,4.50
2019-01-10T01:03:44.094Z,4.30
2019-01-10T01:04:44.082Z,3.70
2019-01-10T01:05:44.092Z,4.30
2019-01-10T01:06:44.062Z,3.90
2019-01-10T01:07:44.050Z,3.80
2019-01-10T01:08:44.041Z,3.80
2019-01-10T01:09:44.035Z,3.80
2019-01-10T01:10:44.033Z,4.80
2019-01-10T01:11:44.003Z,4.80
2019-01-10T01:12:43.993Z,4.30
2019-01-10T01:13:43.982Z,4.30
2019-01-10T01:14:43.971Z,5.20
2019-01-10T01:15:43.980Z,4.20
2019-01-10T01:16:43.948Z,4.80
2019-01-10T01:17:43.937Z,4.80
2019-01-10T01:18:43.934Z,5.60
2019-01-10T01:19:43.917Z,4.60
2019-01-10T01:20:43.924Z,5.60
2019-01-10T01:21:43.893Z,5.30
2019-01-10T01:22:43.881Z,3.80
2019-01-10T01:23:43.871Z,5.00
2019-01-10T01:24:43.862Z,4.70
2019-01-10T01:25:43.868Z,4.60
2019-01-10T01:26:43.836Z,4.90
2019-01-10T01:27:43.826Z,4.30
2019-01-10T01:28:43.813Z,5.40
2019-01-10T01:29:43.805Z,5.30
2019-01-10T01:30:43.816Z,4.50
2019-01-10T01:31:43.780Z,5.50
2019-01-10T01:32:43.777Z,4.60
2019-01-10T01:33:43.759Z,5.10
2019-01-10T01:34:43.749Z,5.70
2019-01-10T01:35:43.757Z,4.70
2019-01-10T01:36:43.722Z,5.00
2019-01-10T01:37:43.713Z,5.40
2019-01-10T01:38:43.703Z,7.00
2019-01-10T01:39:43.700Z,4.10
2019-01-10T01:40:43.699Z,4.80
2019-01-10T01:41:43.668Z,6.50
2019-01-10T01:42:43.657Z,4.50
2019-01-10T01:43:43.646Z,5.50
2019-01-10T01:44:43.634Z,4.50
2019-01-10T01:45:43.648Z,4.60
2019-01-10T01:46:43.613Z,5.50
2019-01-10T01:47:43.603Z,4.90
2019-01-10T01:48:43.590Z,4.10
2019-01-10T01:49:43.580Z,5.70
2019-01-10T01:50:43.583Z,5.10
2019-01-10T01:51:43.557Z,4.70
2019-01-10T01:52:43.549Z,4.20
2019-01-10T01:53:43.534Z,5.70
2019-01-10T01:54:43.524Z,6.10
2019-01-10T01:55:43.527Z,5.30
2019-01-10T01:56:43.503Z,5.20
2019-01-10T01:57:43.489Z,4.80
2019-01-10T01:58:43.477Z,4.60
2019-01-10T01:59:43.466Z,4.50
2019-01-10T02:00:43.473Z,4.60
2019-01-10T02:01:43.444Z,4.90
2019-01-10T02:02:43.433Z,7.50
2019-01-10T02:03:43.462Z,5.30
2019-01-10T02:04:43.410Z,6.10
2019-01-10T02:05:43.444Z,5.00
2019-01-10T02:06:43.387Z,5.20
2019-01-10T02:07:43.383Z,4.50
2019-01-10T02:08:43.372Z,4.80
2019-01-10T02:09:43.355Z,4.70
2019-01-10T02:10:43.378Z,4.20
2019-01-10T02:11:43.334Z,5.50
2019-01-10T02:12:43.324Z,5.10
2019-01-10T02:13:43.310Z,4.40
2019-01-10T02:14:43.298Z,5.90
2019-01-10T02:15:43.306Z,4.10
2019-01-10T02:16:43.275Z,4.70
2019-01-10T02:17:48.861Z,6.30
2019-01-10T02:18:44.250Z,3.40
2019-01-10T02:19:43.245Z,4.10
2019-01-10T02:20:43.251Z,4.30
2019-01-10T02:21:43.227Z,7.20
2019-01-10T02:22:43.326Z,5.90
2019-01-10T02:23:43.197Z,4.30
2019-01-10T02:24:43.185Z,5.50
2019-01-10T02:25:43.194Z,4.90
2019-01-10T02:26:43.164Z,5.10
2019-01-10T02:27:43.157Z,6.20
2019-01-10T02:28:43.163Z,6.40
2019-01-10T02:29:43.127Z,5.70
2019-01-10T02:30:43.136Z,4.70
2019-01-10T02:31:43.107Z,7.10
2019-01-10T02:32:43.099Z,3.90
2019-01-10T02:33:43.083Z,6.40
2019-01-10T02:34:43.078Z,6.50
2019-01-10T02:35:43.079Z,6.00
2019-01-10T02:36:43.053Z,6.70
2019-01-10T02:37:43.040Z,6.90
2019-01-10T02:38:43.028Z,6.40
2019-01-10T02:39:43.017Z,6.70
2019-01-10T02:40:43.027Z,4.80
2019-01-10T02:41:43.087Z,7.00
2019-01-10T02:42:42.986Z,6.30
2019-01-10T02:43:42.974Z,5.90
2019-01-10T02:44:42.966Z,6.70
2019-01-10T02:45:42.969Z,7.90
2019-01-10T02:46:42.939Z,6.30
2019-01-10T02:47:42.927Z,7.00
2019-01-10T02:48:42.920Z,7.70
2019-01-10T02:49:42.907Z,6.10
2019-01-10T02:50:42.916Z,8.40
2019-01-10T02:51:42.882Z,7.10
2019-01-10T02:52:42.884Z,8.70
2019-01-10T02:53:42.861Z,7.00
2019-01-10T02:54:42.849Z,6.80
2019-01-10T02:55:42.861Z,7.20
2019-01-10T02:56:42.827Z,6.40
2019-01-10T02:57:42.815Z,5.10
2019-01-10T02:58:42.808Z,7.60
2019-01-10T02:59:42.795Z,5.50
2019-01-10T03:00:42.799Z,6.90
2019-01-10T03:01:42.773Z,7.40
2019-01-10T03:02:42.759Z,5.20
2019-01-10T03:03:42.752Z,6.50
2019-01-10T03:04:42.737Z,6.30
2019-01-10T03:05:42.743Z,8.70
2019-01-10T03:06:42.716Z,7.80
2019-01-10T03:07:42.710Z,6.00
2019-01-10T03:08:42.692Z,5.80
2019-01-10T03:09:42.684Z,6.30
2019-01-10T03:10:42.692Z,8.70
2019-01-10T03:11:42.659Z,5.40
2019-01-10T03:12:42.653Z,6.00
2019-01-10T03:13:42.635Z,6.10
2019-01-10T03:14:42.624Z,6.10
2019-01-10T03:15:42.632Z,6.50
2019-01-10T03:16:42.602Z,8.30
2019-01-10T03:17:42.595Z,6.20
2019-01-10T03:18:42.584Z,7.50
2019-01-10T03:19:42.568Z,5.20
2019-01-10T03:20:42.577Z,6.80
2019-01-10T03:21:42.547Z,7.00
2019-01-10T03:22:42.536Z,6.10
2019-01-10T03:23:42.524Z,6.00
2019-01-10T03:24:42.515Z,6.60
2019-01-10T03:25:42.531Z,6.20
2019-01-10T03:26:42.490Z,5.70
2019-01-10T03:27:42.479Z,5.40
2019-01-10T03:28:42.470Z,7.20
2019-01-10T03:29:42.459Z,7.10
2019-01-10T03:30:42.478Z,7.70
2019-01-10T03:31:42.440Z,6.80
2019-01-10T03:32:42.424Z,6.40
2019-01-10T03:33:42.411Z,4.90
2019-01-10T03:34:42.404Z,6.10
2019-01-10T03:35:42.419Z,5.30
2019-01-10T03:36:42.383Z,6.40
2019-01-10T03:37:42.364Z,7.00
2019-01-10T03:38:42.356Z,7.10
2019-01-10T03:39:42.345Z,6.10
2019-01-10T03:40:42.350Z,6.00
2019-01-10T03:41:42.320Z,6.20
2019-01-10T03:42:42.309Z,6.70
2019-01-10T03:43:47.483Z,4.80
2019-01-10T03:44:43.286Z,7.30
2019-01-10T03:45:42.295Z,5.70
2019-01-10T03:46:42.264Z,6.20
2019-01-10T03:47:42.258Z,7.20
2019-01-10T03:48:42.245Z,6.00
2019-01-10T03:49:42.231Z,5.50
2019-01-10T03:50:42.243Z,5.00
2019-01-10T03:51:42.209Z,6.10
2019-01-10T03:52:42.201Z,6.30
2019-01-10T03:53:42.187Z,5.10
2019-01-10T03:54:42.178Z,5.30
2019-01-10T03:55:42.184Z,6.10
2019-01-10T03:56:42.152Z,6.30
2019-01-10T03:57:42.142Z,6.00
2019-01-10T03:58:42.132Z,4.70
2019-01-10T03:59:42.120Z,5.10
2019-01-10T04:00:42.126Z,6.40
2019-01-10T04:01:42.098Z,6.40
2019-01-10T04:02:42.088Z,7.10
2019-01-10T04:03:42.080Z,7.50
2019-01-10T04:04:42.062Z,5.60
2019-01-10T04:05:42.069Z,5.30
2019-01-10T04:06:42.041Z,6.20
2019-01-10T04:07:42.032Z,6.10
2019-01-10T04:08:42.020Z,7.10
2019-01-10T04:09:42.009Z,4.80
2019-01-10T04:10:42.012Z,6.30
2019-01-10T04:11:42.059Z,6.70
2019-01-10T04:12:41.976Z,6.50
2019-01-10T04:13:41.964Z,5.90
2019-01-10T04:14:41.954Z,8.70
2019-01-10T04:15:41.957Z,5.70
2019-01-10T04:16:41.931Z,5.60
2019-01-10T04:17:41.934Z,7.30
2019-01-10T04:18:41.910Z,7.20
2019-01-10T04:19:41.911Z,5.50
2019-01-10T04:20:41.903Z,6.50
2019-01-10T04:21:41.878Z,8.60
2019-01-10T04:22:41.863Z,5.80
2019-01-10T04:23:41.851Z,6.80
2019-01-10T04:24:41.841Z,5.40
2019-01-10T04:25:43.065Z,6.40
2019-01-10T04:26:41.817Z,6.70
2019-01-10T04:27:41.806Z,6.60
2019-01-10T04:28:41.796Z,7.20
2019-01-10T04:29:41.787Z,8.00
2019-01-10T04:30:41.793Z,5.70
2019-01-10T04:31:41.773Z,7.80
2019-01-10T04:32:41.756Z,7.50
2019-01-10T04:33:41.742Z,7.50
2019-01-10T04:34:41.727Z,7.70
2019-01-10T04:35:41.737Z,8.40
2019-01-10T04:36:41.705Z,6.30
2019-01-10T04:37:41.699Z,6.70
2019-01-10T04:38:41.686Z,6.80
2019-01-10T04:39:41.675Z,7.40
2019-01-10T04:40:41.682Z,7.20
2019-01-10T04:41:41.662Z,6.40
2019-01-10T04:42:41.641Z,7.60
2019-01-10T04:43:41.627Z,7.90
2019-01-10T04:44:41.618Z,7.70
2019-01-10T04:45:41.624Z,6.10
2019-01-10T04:46:41.594Z,8.00
2019-01-10T04:47:41.584Z,6.60
2019-01-10T04:48:41.595Z,6.30
2019-01-10T04:49:41.561Z,5.90
2019-01-10T04:50:41.566Z,7.60
2019-01-10T04:51:41.538Z,6.40
2019-01-10T04:52:41.527Z,5.90
2019-01-10T04:53:41.518Z,8.50
2019-01-10T04:54:41.507Z,8.70
2019-01-10T04:55:41.512Z,7.00
2019-01-10T04:56:41.484Z,6.10
2019-01-10T04:57:41.479Z,6.20
2019-01-10T04:58:41.462Z,7.10
2019-01-10T04:59:41.450Z,8.50
2019-01-10T05:00:41.470Z,5.40
2019-01-10T05:01:41.430Z,6.70
2019-01-10T05:02:41.416Z,7.20
2019-01-10T05:03:41.406Z,6.70
2019-01-10T05:04:41.394Z,7.00
2019-01-10T05:05:41.397Z,7.30
2019-01-10T05:06:41.373Z,5.70
2019-01-10T05:07:41.364Z,5.60
2019-01-10T05:08:41.349Z,7.00
2019-01-10T05:09:41.339Z,5.50
2019-01-10T05:10:41.344Z,8.10
2019-01-10T05:11:41.314Z,9.30
2019-01-10T05:12:41.836Z,6.30
2019-01-10T05:13:41.295Z,6.60
2019-01-10T05:14:41.284Z,6.00
2019-01-10T05:15:41.289Z,5.80
2019-01-10T05:16:41.259Z,5.50
2019-01-10T05:17:41.275Z,6.60
2019-01-10T05:18:41.249Z,6.80
2019-01-10T05:19:41.241Z,6.70
2019-01-10T05:20:41.237Z,5.80
2019-01-10T05:21:41.293Z,5.90
2019-01-10T05:22:41.193Z,7.90
2019-01-10T05:23:41.182Z,6.20
2019-01-10T05:24:41.171Z,7.70
2019-01-10T05:25:41.178Z,7.50
2019-01-10T05:26:41.168Z,7.30
2019-01-10T05:27:41.141Z,8.00
2019-01-10T05:28:41.156Z,7.90
2019-01-10T05:29:41.115Z,5.90
2019-01-10T05:30:41.119Z,7.50
2019-01-10T05:31:41.090Z,6.90
2019-01-10T05:32:41.082Z,6.50
2019-01-10T05:33:41.069Z,10.20
2019-01-10T05:34:41.059Z,6.60
2019-01-10T05:35:41.071Z,7.30
2019-01-10T05:36:41.048Z,8.40
2019-01-10T05:37:41.026Z,8.20
2019-01-10T05:38:41.013Z,8.30
2019-01-10T05:39:47.482Z,10.60
2019-01-10T05:40:42.006Z,8.80
2019-01-10T05:41:40.981Z,7.90
2019-01-10T05:42:40.970Z,10.20
2019-01-10T05:43:40.958Z,10.00
2019-01-10T05:44:40.946Z,10.90
2019-01-10T05:45:40.953Z,10.00
2019-01-10T05:46:48.328Z,8.20
2019-01-10T05:47:43.230Z,12.00
2019-01-10T05:48:47.285Z,10.00
2019-01-10T05:49:41.890Z,8.70
2019-01-10T05:50:40.898Z,9.10
2019-01-10T05:51:40.872Z,7.00
2019-01-10T05:52:40.857Z,9.20
2019-01-10T05:53:40.845Z,8.30
2019-01-10T05:54:40.836Z,7.50
2019-01-10T05:55:40.843Z,8.10
2019-01-10T05:56:40.814Z,8.60
2019-01-10T05:57:40.805Z,7.10
2019-01-10T05:58:40.794Z,7.70
2019-01-10T05:59:40.780Z,7.10
2019-01-10T06:00:40.793Z,7.60
2019-01-10T06:01:40.759Z,7.30
2019-01-10T06:02:40.753Z,6.50
2019-01-10T06:03:40.735Z,7.60
2019-01-10T06:04:40.725Z,7.40
2019-01-10T06:05:40.736Z,6.50
2019-01-10T06:06:40.701Z,7.50
2019-01-10T06:07:40.692Z,6.80
2019-01-10T06:08:40.679Z,6.50
2019-01-10T06:09:40.672Z,10.50
2019-01-10T06:10:40.675Z,6.20
2019-01-10T06:11:40.645Z,6.10
2019-01-10T06:12:40.634Z,8.70
2019-01-10T06:13:40.624Z,7.70
2019-01-10T06:14:40.617Z,6.90
2019-01-10T06:15:40.620Z,7.20
2019-01-10T06:16:40.591Z,6.10
2019-01-10T06:17:40.578Z,7.50
2019-01-10T06:18:40.569Z,7.90
2019-01-10T06:19:40.559Z,8.70
2019-01-10T06:20:40.566Z,9.00
2019-01-10T06:21:40.534Z,7.50
2019-01-10T06:22:40.522Z,7.40
2019-01-10T06:23:40.512Z,7.00
2019-01-10T06:24:40.500Z,7.20
2019-01-10T06:25:40.507Z,8.20
2019-01-10T06:26:40.623Z,7.70
2019-01-10T06:27:40.465Z,6.80
2019-01-10T06:28:40.455Z,8.10
2019-01-10T06:29:40.445Z,8.90
2019-01-10T06:30:40.476Z,9.50
2019-01-10T06:31:40.423Z,6.60
2019-01-10T06:32:40.410Z,6.90
2019-01-10T06:33:40.470Z,6.80
2019-01-10T06:34:40.392Z,9.20
2019-01-10T06:35:40.393Z,7.90
2019-01-10T06:36:40.367Z,7.00
2019-01-10T06:37:40.366Z,8.70
2019-01-10T06:38:40.343Z,8.40
2019-01-10T06:39:40.332Z,7.80
2019-01-10T06:40:40.342Z,9.30
2019-01-10T06:41:40.310Z,7.90
2019-01-10T06:42:40.300Z,7.60
2019-01-10T06:43:40.288Z,9.50
2019-01-10T06:44:44.631Z,9.00
2019-01-10T06:45:40.283Z,7.00
2019-01-10T06:46:40.255Z,9.10
2019-01-10T06:47:40.243Z,7.20
2019-01-10T06:48:40.233Z,9.40
2019-01-10T06:49:40.222Z,9.10
2019-01-10T06:50:40.224Z,7.00
2019-01-10T06:51:40.201Z,7.60
2019-01-10T06:52:40.188Z,11.20
2019-01-10T06:53:40.178Z,8.80
2019-01-10T06:54:40.172Z,8.90
2019-01-10T06:55:40.170Z,7.90
2019-01-10T06:56:40.146Z,7.00
2019-01-10T06:57:40.135Z,8.10
2019-01-10T06:58:40.122Z,8.30
2019-01-10T06:59:40.109Z,9.10
2019-01-10T07:00:40.118Z,7.50
2019-01-10T07:01:40.091Z,9.50
2019-01-10T07:02:40.076Z,7.40
2019-01-10T07:03:40.067Z,8.40
2019-01-10T07:04:40.055Z,8.70
2019-01-10T07:05:40.057Z,8.80
2019-01-10T07:06:40.031Z,6.70
2019-01-10T07:07:40.020Z,6.80
2019-01-10T07:08:40.010Z,6.90
2019-01-10T07:09:39.997Z,6.80
2019-01-10T07:10:40.005Z,4.60
2019-01-10T07:11:39.978Z,5.70
2019-01-10T07:12:39.999Z,6.40
2019-01-10T07:13:39.952Z,9.60
2019-01-10T07:14:39.943Z,8.60
2019-01-10T07:15:39.949Z,7.60
2019-01-10T07:16:39.920Z,5.60
2019-01-10T07:17:39.910Z,5.10
2019-01-10T07:18:39.898Z,3.60
2019-01-10T07:19:39.890Z,3.50
2019-01-10T07:20:39.895Z,4.70
2019-01-10T07:21:39.867Z,4.30
2019-01-10T07:22:39.851Z,3.90
2019-01-10T07:23:39.840Z,5.70
2019-01-10T07:24:39.829Z,3.80
2019-01-10T07:25:39.839Z,3.90
2019-01-10T07:26:39.809Z,4.60
2019-01-10T07:27:39.796Z,3.20
2019-01-10T07:28:39.792Z,3.60
2019-01-10T07:29:39.773Z,3.80
2019-01-10T07:30:39.797Z,6.10
2019-01-10T07:31:39.750Z,3.40
2019-01-10T07:32:39.743Z,3.20
2019-01-10T07:33:39.730Z,3.60
2019-01-10T07:34:39.720Z,2.70
2019-01-10T07:35:39.726Z,3.00
2019-01-10T07:36:39.702Z,2.80
2019-01-10T07:37:39.690Z,3.00
2019-01-10T07:38:39.672Z,2.80
2019-01-10T07:39:39.673Z,3.20
2019-01-10T07:40:39.668Z,3.70
2019-01-10T07:41:39.638Z,3.10
2019-01-10T07:42:39.632Z,4.10
2019-01-10T07:43:39.617Z,3.80
2019-01-10T07:44:39.606Z,3.30
2019-01-10T07:45:39.612Z,2.50
2019-01-10T07:46:39.583Z,3.00
2019-01-10T07:47:39.572Z,3.10
2019-01-10T07:48:39.562Z,3.70
2019-01-10T07:49:39.549Z,3.60
2019-01-10T07:50:39.556Z,3.30
2019-01-10T07:51:39.527Z,4.50
2019-01-10T07:52:39.516Z,2.90
2019-01-10T07:53:39.508Z,3.50
2019-01-10T07:54:39.494Z,2.40
2019-01-10T07:55:39.514Z,3.40
2019-01-10T07:56:39.479Z,3.40
2019-01-10T07:57:39.459Z,2.60
2019-01-10T07:58:39.449Z,4.80
2019-01-10T07:59:39.441Z,3.90
2019-01-10T08:00:39.444Z,4.70
2019-01-10T08:01:39.415Z,2.30
2019-01-10T08:02:39.403Z,3.70
2019-01-10T08:03:39.392Z,2.30
2019-01-10T08:04:39.384Z,4.30
2019-01-10T08:05:39.389Z,3.50
2019-01-10T08:06:39.363Z,3.70
2019-01-10T08:07:39.349Z,6.90
2019-01-10T08:08:39.339Z,5.40
2019-01-10T08:09:39.326Z,3.10
2019-01-10T08:10:39.339Z,4.00
2019-01-10T08:11:39.303Z,3.80
2019-01-10T08:12:39.295Z,3.80
2019-01-10T08:13:39.284Z,3.70
2019-01-10T08:14:39.271Z,4.20
2019-01-10T08:15:39.276Z,4.30
2019-01-10T08:16:39.249Z,2.90
2019-01-10T08:17:39.238Z,3.10
2019-01-10T08:18:39.228Z,4.50
2019-01-10T08:19:39.214Z,4.00
2019-01-10T08:20:39.221Z,2.40
2019-01-10T08:21:39.193Z,3.10
2019-01-10T08:22:39.181Z,4.30
2019-01-10T08:23:39.170Z,3.20
2019-01-10T08:24:39.161Z,3.70
2019-01-10T08:25:39.167Z,3.40
2019-01-10T08:26:39.139Z,2.60
2019-01-10T08:27:39.124Z,3.40
2019-01-10T08:28:39.114Z,3.70
2019-01-10T08:29:39.104Z,3.70
2019-01-10T08:30:39.107Z,3.80
2019-01-10T08:31:39.079Z,2.80
2019-01-10T08:32:39.070Z,3.40
2019-01-10T08:33:39.058Z,4.00
2019-01-10T08:34:39.046Z,3.50
2019-01-10T08:35:39.051Z,3.10
2019-01-10T08:36:39.023Z,3.10
2019-01-10T08:37:39.011Z,5.70
2019-01-10T08:38:39.003Z,2.30
2019-01-10T08:39:38.991Z,3.00
2019-01-10T08:40:38.996Z,2.50
2019-01-10T08:41:38.968Z,3.80
2019-01-10T08:42:38.958Z,3.50
2019-01-10T08:43:38.945Z,3.50
2019-01-10T08:44:38.969Z,3.60
2019-01-10T08:45:38.945Z,4.90
2019-01-10T08:46:38.911Z,4.00
2019-01-10T08:47:38.900Z,3.60
2019-01-10T08:48:38.899Z,4.10
2019-01-10T08:49:38.878Z,4.60
2019-01-10T08:50:38.884Z,3.60
2019-01-10T08:51:38.859Z,3.70
2019-01-10T08:52:38.846Z,4.30
2019-01-10T08:53:38.836Z,4.10
2019-01-10T08:54:38.824Z,5.40
2019-01-10T08:55:38.828Z,5.50
2019-01-10T08:56:38.801Z,3.40
2019-01-10T08:57:38.790Z,4.40
2019-01-10T08:58:38.783Z,6.40
2019-01-10T08:59:38.770Z,5.50
2019-01-10T09:00:38.779Z,5.00
2019-01-10T09:01:38.743Z,5.00
2019-01-10T09:02:38.732Z,4.60
2019-01-10T09:03:38.721Z,6.00
2019-01-10T09:04:38.711Z,5.40
2019-01-10T09:05:38.719Z,6.00
2019-01-10T09:06:38.691Z,4.20
2019-01-10T09:07:38.676Z,5.50
2019-01-10T09:08:38.666Z,5.70
2019-01-10T09:09:38.654Z,6.40
2019-01-10T09:10:40.490Z,3.50
2019-01-10T09:11:38.630Z,4.30
2019-01-10T09:12:38.621Z,3.80
2019-01-10T09:13:38.610Z,4.90
2019-01-10T09:14:38.599Z,4.30
2019-01-10T09:15:38.601Z,3.90
2019-01-10T09:16:38.581Z,3.90
2019-01-10T09:17:38.565Z,4.00
2019-01-10T09:18:38.553Z,4.40
2019-01-10T09:19:39.266Z,3.50
2019-01-10T09:20:38.552Z,3.60
2019-01-10T09:21:38.520Z,3.50
2019-01-10T09:22:38.507Z,7.00
2019-01-10T09:23:38.501Z,3.90
2019-01-10T09:24:38.486Z,4.30
2019-01-10T09:25:38.500Z,4.00
2019-01-10T09:26:38.464Z,5.00
2019-01-10T09:27:38.456Z,4.30
2019-01-10T09:28:38.440Z,7.00
2019-01-10T09:29:38.430Z,3.50
2019-01-10T09:30:38.767Z,4.40
2019-01-10T09:31:38.409Z,6.30
2019-01-10T09:32:38.397Z,4.30
2019-01-10T09:33:39.677Z,4.50
2019-01-10T09:34:38.376Z,3.70
2019-01-10T09:35:38.382Z,3.20
2019-01-10T09:36:38.356Z,5.40
2019-01-10T09:37:38.341Z,3.60
2019-01-10T09:38:38.331Z,4.30
2019-01-10T09:39:38.328Z,3.50
2019-01-10T09:40:38.325Z,5.40
2019-01-10T09:41:38.297Z,4.20
2019-01-10T09:42:38.288Z,3.80
2019-01-10T09:43:38.279Z,3.90
2019-01-10T09:44:38.264Z,3.40
2019-01-10T09:45:43.137Z,5.10
2019-01-10T09:46:39.238Z,5.40
2019-01-10T09:47:38.230Z,4.90
2019-01-10T09:48:38.219Z,5.60
2019-01-10T09:49:38.208Z,6.30
2019-01-10T09:50:38.216Z,5.60
2019-01-10T09:51:38.183Z,6.50
2019-01-10T09:52:38.172Z,5.50
2019-01-10T09:53:38.161Z,4.80
2019-01-10T09:54:39.295Z,4.30
2019-01-10T09:55:38.168Z,6.10
2019-01-10T09:56:38.130Z,5.00
2019-01-10T09:57:38.121Z,5.20
2019-01-10T09:58:38.108Z,3.90
2019-01-10T09:59:38.100Z,4.70
2019-01-10T10:00:38.105Z,6.80
2019-01-10T10:01:38.077Z,4.30
2019-01-10T10:02:38.062Z,4.00
2019-01-10T10:03:38.051Z,5.50
2019-01-10T10:04:38.042Z,5.70
2019-01-10T10:05:38.049Z,4.50
2019-01-10T10:06:38.095Z,4.70
2019-01-10T10:07:38.005Z,4.80
2019-01-10T10:08:37.999Z,6.00
2019-01-10T10:09:37.983Z,5.80
2019-01-10T10:10:37.987Z,4.90
2019-01-10T10:11:37.961Z,6.40
2019-01-10T10:12:37.949Z,5.40
2019-01-10T10:13:37.936Z,4.90
2019-01-10T10:14:37.930Z,3.80
2019-01-10T10:15:37.941Z,6.10
2019-01-10T10:16:37.906Z,4.90
2019-01-10T10:17:37.897Z,5.20
2019-01-10T10:18:37.883Z,4.70
2019-01-10T10:19:37.876Z,5.30
2019-01-10T10:20:37.878Z,6.00
2019-01-10T10:21:37.849Z,5.30
2019-01-10T10:22:37.840Z,6.10
2019-01-10T10:23:37.828Z,5.40
2019-01-10T10:24:37.910Z,4.60
2019-01-10T10:25:37.820Z,5.90
2019-01-10T10:26:37.793Z,6.20
2019-01-10T10:27:37.781Z,5.50
2019-01-10T10:28:37.772Z,5.80
2019-01-10T10:29:37.761Z,7.00
2019-01-10T10:30:37.766Z,4.90
2019-01-10T10:31:37.739Z,6.50
2019-01-10T10:32:37.727Z,6.00
2019-01-10T10:33:37.795Z,4.10
2019-01-10T10:34:37.704Z,4.90
2019-01-10T10:35:37.712Z,6.30
2019-01-10T10:36:37.683Z,6.40
2019-01-10T10:37:37.673Z,5.30
2019-01-10T10:38:37.662Z,5.20
2019-01-10T10:39:37.648Z,4.30
2019-01-10T10:40:37.657Z,6.10
2019-01-10T10:41:37.626Z,4.90
2019-01-10T10:42:37.617Z,3.60
2019-01-10T10:43:37.605Z,5.10
2019-01-10T10:44:37.592Z,3.60
2019-01-10T10:45:37.599Z,4.00
2019-01-10T10:46:37.571Z,4.50
2019-01-10T10:47:37.560Z,5.20
2019-01-10T10:48:37.549Z,4.50
2019-01-10T10:49:37.540Z,4.70
2019-01-10T10:50:37.542Z,3.90
2019-01-10T10:51:37.516Z,2.80
2019-01-10T10:52:37.504Z,4.10
2019-01-10T10:53:37.502Z,4.10
2019-01-10T10:54:37.481Z,3.40
2019-01-10T10:55:37.487Z,4.30
2019-01-10T10:56:37.459Z,7.40
2019-01-10T10:57:37.447Z,3.60
2019-01-10T10:58:37.438Z,7.00
2019-01-10T10:59:37.425Z,3.50
2019-01-10T11:00:37.431Z,5.60
2019-01-10T11:01:37.404Z,4.50
2019-01-10T11:02:37.393Z,4.40
2019-01-10T11:03:38.841Z,5.10
2019-01-10T11:04:37.369Z,7.30
2019-01-10T11:05:37.377Z,6.90
2019-01-10T11:06:37.349Z,7.10
2019-01-10T11:07:37.336Z,6.10
2019-01-10T11:08:37.326Z,7.90
2019-01-10T11:09:37.314Z,8.80
2019-01-10T11:10:37.323Z,7.20
2019-01-10T11:11:37.291Z,9.60
2019-01-10T11:12:37.279Z,8.80
2019-01-10T11:13:37.268Z,10.00
2019-01-10T11:14:37.257Z,7.30
2019-01-10T11:15:37.267Z,7.80
2019-01-10T11:16:37.236Z,6.60
2019-01-10T11:17:37.228Z,6.50
2019-01-10T11:18:37.212Z,5.60
2019-01-10T11:19:37.203Z,7.10
2019-01-10T11:20:37.205Z,7.80
2019-01-10T11:21:37.178Z,6.70
2019-01-10T11:22:37.168Z,5.90
2019-01-10T11:23:37.160Z,6.20
2019-01-10T11:24:37.147Z,7.00
2019-01-10T11:25:37.153Z,5.80
2019-01-10T11:26:37.123Z,7.40
2019-01-10T11:27:37.118Z,6.00
2019-01-10T11:28:37.101Z,7.60
2019-01-10T11:29:37.089Z,6.60
2019-01-10T11:30:37.093Z,8.10
2019-01-10T11:31:37.066Z,6.10
2019-01-10T11:32:37.078Z,7.40
2019-01-10T11:33:37.045Z,7.20
2019-01-10T11:34:37.034Z,6.30
2019-01-10T11:35:37.041Z,4.80
2019-01-10T11:36:37.011Z,5.90
2019-01-10T11:37:37.000Z,5.50
2019-01-10T11:38:36.989Z,6.50
2019-01-10T11:39:36.981Z,6.60
2019-01-10T11:40:36.984Z,6.30
2019-01-10T11:41:36.954Z,5.30
2019-01-10T11:42:36.944Z,6.20
2019-01-10T11:43:36.932Z,5.60
2019-01-10T11:44:36.925Z,5.30
2019-01-10T11:45:36.930Z,7.20
2019-01-10T11:46:36.900Z,4.50
2019-01-10T11:47:36.891Z,6.10
2019-01-10T11:48:36.881Z,7.70
2019-01-10T11:49:36.867Z,6.10
2019-01-10T11:50:36.874Z,4.90
2019-01-10T11:51:36.843Z,8.00
2019-01-10T11:52:36.834Z,5.60
2019-01-10T11:53:36.820Z,6.00
2019-01-10T11:54:36.810Z,7.00
2019-01-10T11:55:36.813Z,5.50
2019-01-10T11:56:36.787Z,6.50
2019-01-10T11:57:36.779Z,7.70
2019-01-10T11:58:36.765Z,6.00
2019-01-10T11:59:36.755Z,7.20
2019-01-10T12:00:36.759Z,7.80
2019-01-10T12:01:36.732Z,5.50
2019-01-10T12:02:36.730Z,6.00
2019-01-10T12:03:36.710Z,6.00
2019-01-10T12:04:36.699Z,5.40
2019-01-10T12:05:36.706Z,5.10
2019-01-10T12:06:36.678Z,4.30
2019-01-10T12:07:36.733Z,6.70
2019-01-10T12:08:36.655Z,6.30
2019-01-10T12:09:36.644Z,7.10
2019-01-10T12:10:36.648Z,4.50
2019-01-10T12:11:38.301Z,5.20
2019-01-10T12:12:36.619Z,8.30
2019-01-10T12:13:36.597Z,3.90
2019-01-10T12:14:36.586Z,7.30
2019-01-10T12:15:36.592Z,5.70
2019-01-10T12:16:36.564Z,4.20
2019-01-10T12:17:36.554Z,6.60
2019-01-10T12:18:36.542Z,4.30
2019-01-10T12:19:36.531Z,6.10
2019-01-10T12:20:36.540Z,4.70
2019-01-10T12:21:36.508Z,6.10
2019-01-10T12:22:36.498Z,5.70
2019-01-10T12:23:36.486Z,5.50
2019-01-10T12:24:36.475Z,6.70
2019-01-10T12:25:36.480Z,5.30
2019-01-10T12:26:36.523Z,6.70
2019-01-10T12:27:36.440Z,7.00
2019-01-10T12:28:36.428Z,5.20
2019-01-10T12:29:36.552Z,5.60
2019-01-10T12:30:36.427Z,5.60
2019-01-10T12:31:36.401Z,5.20
2019-01-10T12:32:36.388Z,5.80
2019-01-10T12:33:36.374Z,5.20
2019-01-10T12:34:36.361Z,5.20
2019-01-10T12:35:36.368Z,5.90
2019-01-10T12:36:36.341Z,5.20
2019-01-10T12:37:36.329Z,5.00
2019-01-10T12:38:36.317Z,5.20
2019-01-10T12:39:36.310Z,5.60
2019-01-10T12:40:36.314Z,5.90
2019-01-10T12:41:36.292Z,5.20
2019-01-10T12:42:36.275Z,5.00
2019-01-10T12:43:36.265Z,4.50
2019-01-10T12:44:36.267Z,5.30
2019-01-10T12:45:36.258Z,6.00
2019-01-10T12:46:37.643Z,5.60
2019-01-10T12:47:36.217Z,4.00
2019-01-10T12:48:36.206Z,6.00
2019-01-10T12:49:36.196Z,4.80
2019-01-10T12:50:36.201Z,5.10
2019-01-10T12:51:36.173Z,4.60
2019-01-10T12:52:36.161Z,4.10
2019-01-10T12:53:36.149Z,5.90
2019-01-10T12:54:36.144Z,4.90
2019-01-10T12:55:36.146Z,5.50
2019-01-10T12:56:36.118Z,5.70
2019-01-10T12:57:36.106Z,5.40
2019-01-10T12:58:36.096Z,5.30
2019-01-10T12:59:36.084Z,4.30
2019-01-10T13:00:36.086Z,4.80
2019-01-10T13:01:36.088Z,6.00
2019-01-10T13:02:36.048Z,4.90
2019-01-10T13:03:36.037Z,5.10
2019-01-10T13:04:36.030Z,3.80
2019-01-10T13:05:36.044Z,5.30
2019-01-10T13:06:36.004Z,4.00
2019-01-10T13:07:35.994Z,3.00
2019-01-10T13:08:35.983Z,4.10
2019-01-10T13:09:35.969Z,4.20
2019-01-10T13:10:35.976Z,7.10
2019-01-10T13:11:35.947Z,5.90
2019-01-10T13:12:35.937Z,5.50
2019-01-10T13:13:35.925Z,5.80
2019-01-10T13:14:35.913Z,4.80
2019-01-10T13:15:35.918Z,3.40
2019-01-10T13:16:35.891Z,5.80
2019-01-10T13:17:35.880Z,5.10
2019-01-10T13:18:35.870Z,4.50